Time;durP1;ratioP1;P1;durP2;ratioP2;P2;SDS_P1;SDS_P2;PMS_P1;PMS_P2;Temp;Humidity;BMP_temperature;BMP_pressure;BME280_temperature;BME280_humidity;BME280_pressure;Samples;Min_cycle;Max_cycle;Signal;HPM_P1;HPM_P2
2022/05/10 00:01:37;;;;;;;9.63;8.80;;;15.60;99.90;;;;;;5096411;28;20967;-73
2022/05/10 00:04:07;;;;;;;10.53;9.20;;;15.60;99.90;;;;;;5096498;28;20625;-73
2022/05/10 00:06:46;;;;;;;9.40;8.53;;;15.60;99.90;;;;;;5095446;28;21013;-73
2022/05/10 00:09:14;;;;;;;9.53;8.73;;;15.60;99.90;;;;;;5094667;28;20698;-72
2022/05/10 00:11:41;;;;;;;10.23;9.30;;;15.60;99.90;;;;;;5095917;28;20606;-73
2022/05/10 00:14:08;;;;;;;11.20;10.17;;;15.50;99.90;;;;;;5095871;28;20647;-73
2022/05/10 00:16:39;;;;;;;10.37;9.43;;;15.50;99.90;;;;;;5095209;28;21004;-72
2022/05/10 00:19:05;;;;;;;9.97;9.07;;;15.50;99.90;;;;;;5095087;28;20560;-73
2022/05/10 00:21:32;;;;;;;10.57;9.27;;;15.60;99.90;;;;;;5094905;28;20613;-73
2022/05/10 00:23:59;;;;;;;11.33;8.23;;;15.60;99.90;;;;;;5076919;28;20613;-72
2022/05/10 00:26:25;;;;;;;9.33;8.67;;;15.50;99.90;;;;;;5095746;28;20977;-72
2022/05/10 00:28:52;;;;;;;9.97;9.13;;;15.50;99.90;;;;;;5095472;28;20661;-72
2022/05/10 00:31:18;;;;;;;9.47;8.63;;;15.50;99.90;;;;;;5077919;28;20591;-72
2022/05/10 00:33:45;;;;;;;11.73;10.17;;;15.50;99.90;;;;;;5078558;28;20609;-73
2022/05/10 00:36:16;;;;;;;9.37;8.63;;;15.50;99.90;;;;;;5077262;28;20667;-72
2022/05/10 00:38:43;;;;;;;9.77;8.80;;;15.40;99.90;;;;;;5096232;28;20655;-72
2022/05/10 00:41:27;;;;;;;9.10;8.40;;;15.40;99.90;;;;;;5061456;28;20746;-72
2022/05/10 00:44:08;;;;;;;9.53;8.83;;;15.30;99.90;;;;;;5095147;28;20621;-72
2022/05/10 00:46:43;;;;;;;10.13;9.30;;;15.40;99.90;;;;;;5096412;28;20574;-72
2022/05/10 00:49:26;;;;;;;9.80;9.00;;;15.40;99.90;;;;;;5095491;28;20632;-72
2022/05/10 00:52:05;;;;;;;10.93;9.37;;;15.40;99.90;;;;;;5095724;28;20641;-72
2022/05/10 00:55:08;;;;;;;9.17;8.47;;;15.30;99.90;;;;;;5096095;28;20581;-73
2022/05/10 00:57:42;;;;;;;10.43;9.50;;;15.30;99.90;;;;;;5078187;28;20607;-74
2022/05/10 01:00:16;;;;;;;9.77;8.90;;;15.40;99.90;;;;;;5077921;28;20731;-72
2022/05/10 01:02:49;;;;;;;10.07;9.07;;;15.30;99.90;;;;;;5095956;28;20566;-72
2022/05/10 01:05:54;;;;;;;8.87;8.07;;;15.30;99.90;;;;;;5096281;28;20642;-72
2022/05/10 01:08:38;;;;;;;10.57;9.57;;;15.30;99.90;;;;;;5095055;28;20968;-72
2022/05/10 01:11:13;;;;;;;9.17;8.47;;;15.20;99.90;;;;;;5095427;28;20991;-73
2022/05/10 01:13:49;;;;;;;10.33;9.57;;;15.00;99.90;;;;;;5095802;28;20969;-73
2022/05/10 01:16:20;;;;;;;11.30;8.40;;;15.00;99.90;;;;;;5095439;28;20559;-73
2022/05/10 01:18:48;;;;;;;9.43;8.80;;;14.80;99.90;;;;;;5095596;28;20562;-72
2022/05/10 01:21:40;;;;;;;10.63;9.83;;;14.50;99.90;;;;;;5079834;28;20665;-72
2022/05/10 01:24:15;;;;;;;10.57;9.67;;;14.50;99.90;;;;;;5102333;28;20606;-73
2022/05/10 01:27:10;;;;;;;12.07;10.17;;;14.40;99.90;;;;;;5101567;28;20682;-74
2022/05/10 01:29:46;;;;;;;10.73;9.70;;;14.20;99.90;;;;;;5084869;28;21186;-73
2022/05/10 01:35:10;;;;;;;11.73;10.63;;;14.10;99.90;;;;;;5104269;28;20573;-73
2022/05/10 01:37:41;;;;;;;11.73;10.73;;;13.80;99.90;;;;;;5103091;28;21105;-73
2022/05/10 01:40:22;;;;;;;12.13;10.60;;;13.80;99.90;;;;;;5102810;28;20555;-73
2022/05/10 01:43:06;;;;;;;12.30;11.23;;;13.70;99.90;;;;;;5103650;28;20881;-73
2022/05/10 01:45:46;;;;;;;12.00;10.97;;;13.70;99.90;;;;;;5102251;28;20648;-73
2022/05/10 01:48:17;;;;;;;11.90;10.80;;;13.70;99.90;;;;;;5084406;28;20703;-73
2022/05/10 01:50:46;;;;;;;9.57;8.87;;;13.80;99.90;;;;;;5102509;28;20654;-73
2022/05/10 01:53:33;;;;;;;12.30;11.17;;;13.80;99.90;;;;;;5102605;28;20589;-74
2022/05/10 01:56:15;;;;;;;12.20;11.00;;;13.80;99.90;;;;;;5103138;28;20573;-73
2022/05/10 01:58:43;;;;;;;11.17;10.27;;;13.70;99.90;;;;;;5103118;28;20576;-73
2022/05/10 02:01:33;;;;;;;11.67;10.67;;;13.60;99.90;;;;;;5067776;28;20644;-73
2022/05/10 02:04:09;;;;;;;11.87;10.77;;;13.70;99.90;;;;;;5101043;28;20715;-74
2022/05/10 02:06:46;;;;;;;13.20;11.23;;;13.70;99.90;;;;;;5101271;28;20622;-73
2022/05/10 02:09:40;;;;;;;12.20;10.90;;;13.70;99.90;;;;;;5102420;28;21011;-73
2022/05/10 02:12:15;;;;;;;11.70;10.70;;;13.80;99.90;;;;;;5102260;28;20833;-73
2022/05/10 02:14:51;;;;;;;11.70;10.60;;;13.70;99.90;;;;;;5102412;28;20589;-74
2022/05/10 02:17:31;;;;;;;11.27;10.37;;;13.60;99.90;;;;;;5102778;28;20576;-72
2022/05/10 02:20:02;;;;;;;10.63;9.73;;;13.60;99.90;;;;;;5101693;28;20723;-72
2022/05/10 02:22:40;;;;;;;11.10;10.10;;;13.60;99.90;;;;;;5102033;28;21171;-73
2022/05/10 02:25:20;;;;;;;12.70;11.10;;;13.60;99.90;;;;;;5082055;28;20991;-72
2022/05/10 02:27:54;;;;;;;11.50;10.60;;;13.50;99.90;;;;;;5083796;28;21175;-73
2022/05/10 02:30:24;;;;;;;11.40;10.40;;;13.50;99.90;;;;;;5102196;28;20640;-73
2022/05/10 02:33:07;;;;;;;11.50;10.50;;;13.60;99.90;;;;;;5081416;28;21046;-72
2022/05/10 02:35:54;;;;;;;11.00;10.10;;;13.70;99.90;;;;;;5080768;28;20616;-73
2022/05/10 02:38:33;;;;;;;10.93;9.87;;;13.70;99.90;;;;;;5098739;28;20548;-73
2022/05/10 02:41:02;;;;;;;10.83;9.93;;;13.70;99.90;;;;;;5080723;28;20595;-72
2022/05/10 02:43:32;;;;;;;12.27;11.17;;;13.70;99.90;;;;;;5097905;28;20601;-73
2022/05/10 02:45:59;;;;;;;11.53;10.20;;;13.70;99.90;;;;;;5097361;28;20591;-73
2022/05/10 02:48:31;;;;;;;13.70;10.73;;;13.60;99.90;;;;;;5097295;28;20598;-72
2022/05/10 02:50:58;;;;;;;12.00;10.90;;;13.50;99.90;;;;;;5079091;28;20694;-73
2022/05/10 02:53:26;;;;;;;16.87;12.10;;;13.50;99.90;;;;;;5097519;28;21078;-72
2022/05/10 02:56:05;;;;;;;12.17;11.17;;;13.30;99.90;;;;;;5063398;28;21147;-72
2022/05/10 02:59:03;;;;;;;12.93;11.63;;;13.20;99.90;;;;;;5097701;28;20581;-73
2022/05/10 03:01:53;;;;;;;11.43;10.50;;;13.20;99.90;;;;;;5079685;28;20613;-73
2022/05/10 03:04:20;;;;;;;10.90;10.10;;;13.20;99.90;;;;;;5098529;28;20565;-73
2022/05/10 03:06:47;;;;;;;12.77;11.53;;;13.20;99.90;;;;;;5097702;28;21314;-73
2022/05/10 03:09:15;;;;;;;12.33;11.30;;;13.40;99.90;;;;;;5080162;28;20605;-73
2022/05/10 03:11:42;;;;;;;12.60;9.97;;;13.30;99.90;;;;;;5097740;28;20978;-72
2022/05/10 03:14:10;;;;;;;12.00;10.90;;;13.50;99.90;;;;;;5097141;28;21171;-73
2022/05/10 03:16:37;;;;;;;17.13;11.23;;;13.50;99.90;;;;;;5096724;28;20620;-72
2022/05/10 03:19:04;;;;;;;11.50;10.33;;;13.50;99.90;;;;;;5079992;28;21179;-72
2022/05/10 03:21:30;;;;;;;13.70;10.90;;;13.50;99.90;;;;;;5097578;28;20588;-73
2022/05/10 03:23:57;;;;;;;11.70;10.67;;;13.50;99.90;;;;;;5098628;28;20594;-73
2022/05/10 03:26:26;;;;;;;12.53;11.27;;;13.50;99.90;;;;;;5080860;28;20616;-73
2022/05/10 03:28:54;;;;;;;11.67;10.57;;;13.50;99.90;;;;;;5098609;28;21235;-72
2022/05/10 03:31:22;;;;;;;12.10;11.13;;;13.30;99.90;;;;;;5080549;28;21230;-72
2022/05/10 03:34:53;;;;;;;12.65;11.35;;;13.30;99.90;;;;;;5081146;28;20624;-72
2022/05/10 03:36:38;;;;;;;13.93;11.30;;;13.20;99.90;;;;;;5098795;28;20286;-72
2022/05/10 03:39:05;;;;;;;12.63;11.32;;;13.10;99.90;;;;;;5098273;28;20662;-72
2022/05/10 03:41:32;;;;;;;11.48;10.40;;;13.00;99.90;;;;;;5098650;28;20199;-72
2022/05/10 03:43:59;;;;;;;13.00;11.90;;;12.80;99.90;;;;;;5097984;28;20207;-72
2022/05/10 03:46:26;;;;;;;13.43;12.23;;;12.60;99.90;;;;;;5097089;28;20625;-72
2022/05/10 03:48:53;;;;;;;12.85;11.75;;;12.50;99.90;;;;;;5097024;28;20602;-72
2022/05/10 03:51:19;;;;;;;12.95;11.85;;;12.50;99.90;;;;;;5097737;28;20231;-73
2022/05/10 03:53:46;;;;;;;13.50;11.43;;;12.50;99.90;;;;;;5098311;28;20221;-73
2022/05/10 03:56:12;;;;;;;15.60;11.67;;;12.50;99.90;;;;;;5097259;28;20663;-73
2022/05/10 03:58:39;;;;;;;13.07;11.88;;;12.60;99.90;;;;;;5062815;28;20980;-74
2022/05/10 04:01:07;;;;;;;13.98;11.80;;;12.60;99.90;;;;;;5097480;28;20202;-73
2022/05/10 04:03:35;;;;;;;12.68;11.48;;;12.30;99.90;;;;;;5096765;28;20263;-73
2022/05/10 04:06:02;;;;;;;14.32;12.10;;;12.30;99.90;;;;;;5078353;28;20318;-73
2022/05/10 04:08:30;;;;;;;13.43;12.23;;;12.20;99.90;;;;;;5079301;28;20205;-73
2022/05/10 04:11:05;;;;;;;14.05;12.65;;;12.30;99.90;;;;;;5079684;28;20227;-73
2022/05/10 04:13:32;;;;;;;12.77;11.68;;;12.40;99.90;;;;;;5096090;28;20175;-73
2022/05/10 04:15:58;;;;;;;13.63;12.20;;;12.40;99.90;;;;;;5096554;28;20195;-73
2022/05/10 04:18:26;;;;;;;13.73;12.27;;;12.50;99.90;;;;;;5079872;28;20202;-73
2022/05/10 04:20:53;;;;;;;13.65;11.85;;;12.60;99.90;;;;;;5079437;28;20203;-73
2022/05/10 04:23:19;;;;;;;12.55;11.43;;;12.70;99.90;;;;;;5096936;28;20230;-73
2022/05/10 04:25:46;;;;;;;12.23;11.13;;;12.70;99.90;;;;;;5096680;28;20210;-73
2022/05/10 04:28:12;;;;;;;13.55;12.25;;;12.70;99.90;;;;;;5096263;28;20732;-73
2022/05/10 04:30:39;;;;;;;13.02;11.90;;;12.60;99.90;;;;;;5096878;28;20219;-73
2022/05/10 04:33:06;;;;;;;13.30;12.00;;;12.50;99.90;;;;;;5097234;28;20582;-73
2022/05/10 04:35:32;;;;;;;12.90;11.60;;;12.50;99.90;;;;;;5080066;28;21175;-73
2022/05/10 04:38:04;;;;;;;13.13;11.83;;;12.50;99.90;;;;;;5098306;28;21163;-73
2022/05/10 04:43:17;;;;;;;11.93;10.97;;;12.70;99.90;;;;;;5098352;28;20585;-73
2022/05/10 04:45:43;;;;;;;12.77;11.30;;;12.80;99.90;;;;;;5079325;28;20629;-72
2022/05/10 04:48:10;;;;;;;13.20;11.87;;;12.90;99.90;;;;;;5078451;28;20681;-73
2022/05/10 04:50:37;;;;;;;16.27;11.20;;;12.90;99.90;;;;;;5078404;28;20660;-72
2022/05/10 04:53:03;;;;;;;20.00;12.20;;;13.00;99.90;;;;;;5096374;28;20203;-73
2022/05/10 04:55:29;;;;;;;13.47;12.47;;;13.20;99.90;;;;;;5095871;28;20602;-73
2022/05/10 04:57:56;;;;;;;12.07;11.03;;;13.30;99.90;;;;;;5078559;28;20675;-73
2022/05/10 05:00:23;;;;;;;14.07;11.90;;;13.40;99.90;;;;;;5078274;28;20934;-74
2022/05/10 05:02:49;;;;;;;13.00;11.80;;;13.40;99.90;;;;;;5096392;28;20613;-71
2022/05/10 05:05:16;;;;;;;13.70;12.50;;;13.30;99.90;;;;;;5096910;28;20641;-72
2022/05/10 05:07:43;;;;;;;13.30;11.80;;;13.40;99.90;;;;;;5095429;28;20720;-72
2022/05/10 05:10:10;;;;;;;13.50;12.07;;;13.60;99.90;;;;;;5095756;28;20668;-72
2022/05/10 05:12:36;;;;;;;12.33;11.30;;;13.70;99.90;;;;;;5077526;28;20594;-72
2022/05/10 05:15:05;;;;;;;14.27;12.13;;;13.90;99.90;;;;;;5095850;28;20611;-73
2022/05/10 05:17:32;;;;;;;11.80;10.80;;;14.10;99.90;;;;;;5094778;28;20601;-72
2022/05/10 05:19:58;;;;;;;12.97;11.47;;;14.10;99.90;;;;;;5076285;28;20621;-72
2022/05/10 05:22:26;;;;;;;16.53;10.70;;;14.30;99.90;;;;;;5095448;28;20757;-72
2022/05/10 05:24:53;;;;;;;12.40;11.27;;;14.60;99.90;;;;;;5094787;28;20743;-72
2022/05/10 05:27:20;;;;;;;11.40;10.50;;;14.60;99.90;;;;;;5078156;28;20599;-73
2022/05/10 05:29:47;;;;;;;11.80;10.90;;;14.60;99.90;;;;;;5095332;28;20696;-72
2022/05/10 05:32:16;;;;;;;14.77;11.37;;;14.70;99.90;;;;;;5076250;28;20621;-72
2022/05/10 05:34:43;;;;;;;12.27;11.07;;;14.80;99.90;;;;;;5094255;28;20613;-71
2022/05/10 05:39:54;;;;;;;12.77;11.63;;;15.10;99.90;;;;;;5094132;28;20592;-74
2022/05/10 05:42:21;;;;;;;12.93;10.90;;;15.40;99.90;;;;;;5076772;28;20748;-77
2022/05/10 05:44:47;;;;;;;12.67;11.40;;;15.40;99.90;;;;;;5076863;28;20294;-73
2022/05/10 05:47:13;;;;;;;13.20;12.20;;;15.40;99.90;;;;;;5077141;28;21160;-72
2022/05/10 05:49:40;;;;;;;12.37;11.30;;;15.60;99.90;;;;;;5093842;28;21023;-72
2022/05/10 05:52:06;;;;;;;14.50;13.20;;;15.60;99.90;;;;;;5093836;28;21194;-71
2022/05/10 05:54:33;;;;;;;14.77;13.33;;;15.70;99.90;;;;;;5093539;28;20621;-73
2022/05/10 05:57:06;;;;;;;14.53;13.03;;;15.80;99.90;;;;;;5093554;28;20605;-72
2022/05/10 05:59:33;;;;;;;20.03;13.40;;;15.90;99.90;;;;;;5093433;28;20573;-72
2022/05/10 06:02:00;;;;;;;14.40;12.90;;;16.00;99.90;;;;;;5095368;28;20647;-71
2022/05/10 06:04:26;;;;;;;13.87;12.53;;;16.00;99.90;;;;;;5094428;28;20617;-71
2022/05/10 06:06:53;;;;;;;14.50;13.00;;;15.90;99.90;;;;;;5093275;28;20652;-71
2022/05/10 06:09:22;;;;;;;14.57;13.33;;;16.10;99.90;;;;;;5096747;28;20610;-71
2022/05/10 06:11:51;;;;;;;18.47;16.87;;;16.30;99.90;;;;;;5080263;28;21066;-73
2022/05/10 06:14:18;;;;;;;16.53;13.93;;;16.30;99.90;;;;;;5098923;28;20605;-71
2022/05/10 06:16:44;;;;;;;17.73;14.47;;;16.40;99.90;;;;;;5097894;28;20624;-71
2022/05/10 06:19:12;;;;;;;15.83;14.03;;;16.70;99.90;;;;;;5099645;28;20593;-72
2022/05/10 06:21:41;;;;;;;15.30;13.90;;;16.80;99.90;;;;;;5097078;28;20621;-73
2022/05/10 06:24:09;;;;;;;18.10;12.97;;;17.10;99.90;;;;;;5078856;28;20662;-73
2022/05/10 06:26:36;;;;;;;17.87;14.63;;;17.20;99.90;;;;;;5098283;28;20613;-72
2022/05/10 06:29:03;;;;;;;14.93;13.70;;;17.20;99.90;;;;;;5098550;28;20988;-72
2022/05/10 06:31:30;;;;;;;14.57;13.37;;;17.30;99.90;;;;;;5097605;28;20639;-72
2022/05/10 06:33:56;;;;;;;15.80;14.37;;;17.30;99.90;;;;;;5097591;28;21190;-72
2022/05/10 06:36:23;;;;;;;15.73;12.93;;;17.20;99.90;;;;;;5079721;28;20628;-72
2022/05/10 06:38:50;;;;;;;13.30;12.10;;;17.30;99.90;;;;;;5099116;28;20599;-72
2022/05/10 06:41:16;;;;;;;15.60;12.80;;;17.10;99.90;;;;;;5096950;28;20627;-71
2022/05/10 06:43:43;;;;;;;14.43;13.00;;;17.20;99.90;;;;;;5097556;28;20632;-72
2022/05/10 06:46:15;;;;;;;14.40;12.87;;;17.20;99.90;;;;;;5078852;28;20625;-71
2022/05/10 06:48:45;;;;;;;13.20;11.87;;;17.40;99.90;;;;;;5096370;28;20621;-71
2022/05/10 06:51:14;;;;;;;13.30;12.13;;;17.30;99.90;;;;;;5096738;28;20639;-72
2022/05/10 06:53:42;;;;;;;14.50;13.10;;;17.70;99.90;;;;;;5096290;28;21216;-71
2022/05/10 06:56:09;;;;;;;14.17;12.10;;;17.80;99.90;;;;;;5096431;28;20620;-71
2022/05/10 06:58:35;;;;;;;14.53;12.10;;;17.90;99.90;;;;;;5079009;28;20676;-72
2022/05/10 07:01:04;;;;;;;13.83;12.50;;;17.80;99.90;;;;;;5097231;28;20617;-72
2022/05/10 07:03:32;;;;;;;14.43;12.80;;;17.60;99.90;;;;;;5096869;28;20662;-72
2022/05/10 07:06:01;;;;;;;14.67;13.27;;;17.60;99.90;;;;;;5097387;28;20660;-72
2022/05/10 07:08:28;;;;;;;13.73;12.43;;;17.50;99.90;;;;;;5096526;28;20630;-72
2022/05/10 07:10:55;;;;;;;13.70;12.40;;;18.00;99.90;;;;;;5096521;28;20713;-72
2022/05/10 07:13:25;;;;;;;13.53;12.33;;;18.30;99.90;;;;;;5095895;28;20958;-71
2022/05/10 07:15:52;;;;;;;13.40;12.30;;;18.40;99.90;;;;;;5096615;28;20654;-73
2022/05/10 07:18:19;;;;;;;12.60;11.60;;;18.20;99.90;;;;;;5096872;28;20643;-72
2022/05/10 07:20:48;;;;;;;12.57;11.47;;;18.10;99.90;;;;;;5096823;28;21068;-73
2022/05/10 07:23:18;;;;;;;13.70;12.30;;;17.90;99.90;;;;;;5096109;28;20666;-74
2022/05/10 07:25:44;;;;;;;12.67;11.40;;;18.00;99.90;;;;;;5095951;28;20578;-72
2022/05/10 07:28:11;;;;;;;12.77;11.63;;;18.30;99.90;;;;;;5096190;28;20610;-72
2022/05/10 07:30:38;;;;;;;12.47;11.30;;;18.40;99.90;;;;;;5095818;28;20675;-72
2022/05/10 07:33:05;;;;;;;13.07;11.80;;;18.70;99.90;;;;;;5095919;28;20624;-73
2022/05/10 07:38:18;;;;;;;12.80;11.70;;;18.70;99.90;;;;;;5095943;28;20566;-72
2022/05/10 07:40:49;;;;;;;13.30;12.10;;;18.90;99.90;;;;;;5095210;28;21000;-72
2022/05/10 07:43:18;;;;;;;13.93;12.50;;;18.60;99.90;;;;;;5096251;28;20570;-73
2022/05/10 07:45:48;;;;;;;13.37;12.40;;;18.60;99.90;;;;;;5095644;28;20636;-72
2022/05/10 07:48:15;;;;;;;14.73;13.37;;;19.00;99.90;;;;;;5095073;28;20979;-72
2022/05/10 07:50:42;;;;;;;14.70;13.27;;;19.10;99.90;;;;;;5094701;28;20729;-72
2022/05/10 07:53:13;;;;;;;13.27;12.00;;;19.10;99.90;;;;;;5094858;28;20609;-72
2022/05/10 07:55:40;;;;;;;12.40;11.40;;;19.20;99.90;;;;;;5095370;28;21121;-73
2022/05/10 07:58:08;;;;;;;13.33;12.33;;;19.10;99.90;;;;;;5095432;28;20658;-73
2022/05/10 08:00:36;;;;;;;15.17;12.77;;;19.50;99.90;;;;;;5095260;28;20633;-72
2022/05/10 08:03:28;;;;;;;14.40;12.90;;;19.40;99.90;;;;;;5095338;28;20620;-72
2022/05/10 08:05:55;;;;;;;13.50;12.40;;;19.70;99.90;;;;;;5091606;28;21295;-72
2022/05/10 08:08:23;;;;;;;13.70;12.60;;;19.80;99.90;;;;;;5095433;28;20578;-72
2022/05/10 08:10:51;;;;;;;14.60;13.30;;;20.00;99.90;;;;;;5095164;28;20660;-72
2022/05/10 08:13:23;;;;;;;13.40;12.07;;;20.00;99.90;;;;;;5095845;28;20697;-72
2022/05/10 08:15:51;;;;;;;12.03;11.10;;;20.30;99.90;;;;;;5096042;28;20582;-72
2022/05/10 08:18:19;;;;;;;13.00;11.80;;;20.50;99.90;;;;;;5095693;28;20601;-72
2022/05/10 08:20:46;;;;;;;12.90;11.90;;;20.30;99.90;;;;;;5095302;28;20613;-72
2022/05/10 08:23:25;;;;;;;12.63;11.53;;;20.50;99.90;;;;;;5076628;28;20629;-72
2022/05/10 08:25:54;;;;;;;12.63;11.50;;;20.40;99.90;;;;;;5095589;28;20585;-72
2022/05/10 08:28:22;;;;;;;13.33;12.00;;;20.20;99.90;;;;;;5096412;28;20694;-72
2022/05/10 08:30:49;;;;;;;11.37;10.47;;;20.80;99.90;;;;;;5094827;28;20962;-73
2022/05/10 08:33:20;;;;;;;12.17;10.97;;;21.00;99.90;;;;;;5093482;28;20613;-72
2022/05/10 08:35:48;;;;;;;13.50;12.30;;;20.80;99.90;;;;;;5075522;28;20622;-72
2022/05/10 08:38:15;;;;;;;12.43;11.27;;;20.80;99.90;;;;;;5076278;28;20626;-72
2022/05/10 08:41:02;;;;;;;15.43;14.07;;;21.10;99.90;;;;;;5093870;28;20615;-72
2022/05/10 08:43:46;;;;;;;13.73;12.43;;;20.70;99.90;;;;;;5093582;28;20609;-72
2022/05/10 08:46:20;;;;;;;12.80;11.73;;;21.00;99.90;;;;;;5093815;28;20581;-72
2022/05/10 08:48:54;;;;;;;11.97;10.87;;;21.40;99.90;;;;;;5094828;28;20639;-73
2022/05/10 08:51:22;;;;;;;14.10;12.90;;;21.50;99.90;;;;;;5094265;28;20664;-72
2022/05/10 08:53:49;;;;;;;13.53;12.17;;;21.30;99.90;;;;;;5094583;28;20613;-72
2022/05/10 08:56:23;;;;;;;11.67;10.60;;;21.30;99.90;;;;;;5094543;28;20613;-72
2022/05/10 08:59:06;;;;;;;12.57;11.30;;;21.80;99.90;;;;;;5094478;28;20577;-72
2022/05/10 09:01:39;;;;;;;16.27;12.40;;;22.00;99.90;;;;;;5095209;28;20929;-71
2022/05/10 09:04:19;;;;;;;12.57;11.43;;;21.70;99.90;;;;;;5095395;28;20573;-73
2022/05/10 09:07:00;;;;;;;12.30;11.03;;;21.80;99.90;;;;;;5095054;28;20649;-73
2022/05/10 09:09:28;;;;;;;12.70;11.70;;;21.80;99.90;;;;;;5075883;28;20891;-73
2022/05/10 09:12:00;;;;;;;12.57;11.33;;;22.10;99.90;;;;;;5094322;28;20653;-72
2022/05/10 09:14:33;;;;;;;11.67;10.60;;;22.50;99.90;;;;;;5094057;28;20628;-71
2022/05/10 09:17:03;;;;;;;11.43;10.37;;;22.60;99.90;;;;;;5094263;28;20582;-73
2022/05/10 09:19:38;;;;;;;10.83;10.00;;;22.70;99.90;;;;;;5093615;28;20597;-73
2022/05/10 09:22:32;;;;;;;12.80;10.40;;;22.80;99.90;;;;;;5093492;28;20597;-73
2022/05/10 09:24:58;;;;;;;10.77;9.77;;;23.00;99.90;;;;;;5071133;28;20644;-73
2022/05/10 09:27:31;;;;;;;10.90;9.80;;;22.90;99.90;;;;;;5094401;28;20613;-73
2022/05/10 09:29:58;;;;;;;12.17;9.63;;;22.70;99.90;;;;;;5094339;28;20960;-73
2022/05/10 09:35:28;;;;;;;9.60;8.83;;;23.00;99.90;;;;;;5094721;28;20581;-77
2022/05/10 09:37:59;;;;;;;8.87;8.27;;;23.20;99.90;;;;;;5094628;28;20616;-73
2022/05/10 09:40:43;;;;;;;11.30;9.73;;;23.20;99.90;;;;;;5093933;28;20566;-73
2022/05/10 09:43:26;;;;;;;10.03;9.17;;;23.30;99.90;;;;;;5096597;28;20608;-72
2022/05/10 09:46:09;;;;;;;10.40;8.80;;;22.90;99.90;;;;;;5098586;28;20616;-73
2022/05/10 09:48:37;;;;;;;10.00;9.10;;;23.20;99.90;;;;;;5098395;28;20570;-73
2022/05/10 09:51:26;;;;;;;14.83;9.57;;;23.60;99.90;;;;;;5097687;28;20676;-72
2022/05/10 09:53:55;;;;;;;9.57;8.70;;;23.50;99.90;;;;;;5084499;28;20621;-72
2022/05/10 09:56:24;;;;;;;9.37;8.67;;;23.60;99.90;;;;;;5080040;28;21093;-72
2022/05/10 09:58:58;;;;;;;9.40;8.80;;;23.70;99.90;;;;;;5097466;28;21195;-72
2022/05/10 10:01:39;;;;;;;9.20;8.40;;;24.00;99.90;;;;;;5097461;28;21167;-73
2022/05/10 10:04:17;;;;;;;9.13;8.40;;;24.10;99.90;;;;;;5097573;28;20601;-72
2022/05/10 10:06:43;;;;;;;8.00;7.30;;;24.20;99.90;;;;;;5097257;28;20657;-72
2022/05/10 10:09:10;;;;;;;7.97;7.30;;;24.30;99.90;;;;;;5097399;28;20613;-71
2022/05/10 10:11:39;;;;;;;8.47;6.87;;;24.10;99.90;;;;;;5062657;28;20641;-72
2022/05/10 10:14:10;;;;;;;9.70;7.17;;;24.60;99.90;;;;;;5097874;28;20675;-71
2022/05/10 10:16:51;;;;;;;8.57;7.83;;;24.80;99.90;;;;;;5099139;28;20616;-76
2022/05/10 10:19:38;;;;;;;8.77;7.90;;;24.70;99.90;;;;;;5098766;28;20613;-72
2022/05/10 10:22:15;;;;;;;8.53;7.10;;;25.00;99.90;;;;;;5096865;28;21100;-72
2022/05/10 10:25:03;;;;;;;12.53;8.13;;;24.90;99.90;;;;;;5096570;28;20588;-72
2022/05/10 10:28:01;;;;;;;8.10;7.50;;;25.20;99.90;;;;;;5097216;28;20566;-73
2022/05/10 10:30:37;;;;;;;8.53;7.93;;;25.50;99.90;;;;;;5097343;28;20600;-73
2022/05/10 10:33:14;;;;;;;7.60;6.60;;;25.10;99.90;;;;;;5097596;28;20572;-73
2022/05/10 10:35:47;;;;;;;7.87;7.17;;;25.10;99.90;;;;;;5097177;28;20631;-74
2022/05/10 10:38:24;;;;;;;8.00;7.50;;;25.40;99.90;;;;;;5097136;28;20577;-74
2022/05/10 10:41:23;;;;;;;12.93;7.90;;;25.10;99.90;;;;;;5097050;28;21134;-73
2022/05/10 10:43:58;;;;;;;8.20;7.07;;;25.80;99.90;;;;;;5097435;28;21282;-73
2022/05/10 10:46:36;;;;;;;11.77;6.43;;;25.70;99.90;;;;;;5097844;28;20580;-74
2022/05/10 10:49:17;;;;;;;7.40;6.80;;;25.50;99.90;;;;;;5095864;28;21101;-73
2022/05/10 10:51:45;;;;;;;6.50;6.10;;;25.80;99.90;;;;;;5095857;28;20633;-73
2022/05/10 10:54:25;;;;;;;6.50;6.00;;;26.20;99.90;;;;;;5094657;28;20620;-73
2022/05/10 10:57:12;;;;;;;6.40;6.10;;;25.80;99.90;;;;;;5096176;28;21142;-73
2022/05/10 11:00:07;;;;;;;7.50;6.63;;;25.60;99.90;;;;;;5097003;28;20577;-73
2022/05/10 11:03:06;;;;;;;6.90;6.40;;;26.20;99.90;;;;;;5097324;28;20558;-73
2022/05/10 11:05:45;;;;;;;6.13;5.73;;;26.00;99.90;;;;;;5096893;28;20649;-73
2022/05/10 11:08:31;;;;;;;6.47;5.97;;;26.20;99.90;;;;;;5097702;28;20542;-73
2022/05/10 11:11:25;;;;;;;6.70;6.10;;;26.70;99.90;;;;;;5097219;28;20574;-74
2022/05/10 11:14:22;;;;;;;7.00;6.53;;;26.20;99.90;;;;;;5097384;28;20581;-74
2022/05/10 11:17:13;;;;;;;5.87;5.57;;;26.10;99.90;;;;;;5096247;28;20610;-73
2022/05/10 11:20:11;;;;;;;6.03;5.73;;;26.10;99.90;;;;;;5097157;28;20577;-73
2022/05/10 11:22:44;;;;;;;6.90;6.50;;;26.50;99.90;;;;;;5096309;28;20617;-74
2022/05/10 11:25:13;;;;;;;7.07;6.57;;;26.60;99.90;;;;;;5098483;28;20639;-74
2022/05/10 11:28:17;;;;;;;7.23;6.73;;;27.30;99.90;;;;;;5096825;28;20612;-73
2022/05/10 11:30:53;;;;;;;8.20;7.40;;;27.10;99.90;;;;;;5096068;28;20608;-73
2022/05/10 11:34:06;;;;;;;6.53;5.97;;;27.10;99.90;;;;;;5095890;28;20621;-73
2022/05/10 11:36:42;;;;;;;6.50;6.00;;;27.50;99.90;;;;;;5095740;28;20609;-73
2022/05/10 11:39:20;;;;;;;11.30;6.30;;;27.50;99.90;;;;;;5096328;28;20582;-72
2022/05/10 11:41:51;;;;;;;7.00;6.37;;;27.40;99.90;;;;;;5077841;28;20635;-73
2022/05/10 11:44:29;;;;;;;7.07;6.57;;;27.00;99.90;;;;;;5096185;28;20578;-73
2022/05/10 11:47:17;;;;;;;6.83;5.93;;;27.10;99.90;;;;;;5095546;28;20617;-74
2022/05/10 11:50:05;;;;;;;6.40;6.00;;;27.00;99.90;;;;;;5096577;28;20934;-73
2022/05/10 11:52:58;;;;;;;7.13;5.77;;;27.40;99.90;;;;;;5096232;28;20715;-73
2022/05/10 11:55:47;;;;;;;7.73;7.20;;;27.60;99.90;;;;;;5096252;28;21076;-73
2022/05/10 11:58:14;;;;;;;10.60;6.30;;;28.10;99.90;;;;;;5095075;28;21080;-74
2022/05/10 12:00:44;;;;;;;6.23;5.83;;;28.00;99.90;;;;;;5076970;28;20605;-74
2022/05/10 12:03:32;;;;;;;5.50;5.13;;;27.80;99.90;;;;;;5094904;28;20628;-74
2022/05/10 12:06:24;;;;;;;6.60;5.70;;;27.40;99.90;;;;;;5093875;28;21226;-73
2022/05/10 12:08:52;;;;;;;6.63;6.17;;;27.50;99.90;;;;;;5094534;28;21113;-74
2022/05/10 12:11:30;;;;;;;6.27;5.77;;;28.30;99.90;;;;;;5093892;28;20993;-73
2022/05/10 12:22:45;;;;;;;5.20;4.97;;;28.50;99.90;;;;;;5094464;28;20967;-74
2022/05/10 12:25:49;;;;;;;5.67;5.10;;;28.50;99.90;;;;;;5095534;28;21247;-73
2022/05/10 12:28:39;;;;;;;6.03;5.43;;;29.10;99.90;;;;;;5094775;28;21329;-73
2022/05/10 12:31:44;;;;;;;5.50;5.00;;;29.20;99.90;;;;;;5094353;28;20624;-73
2022/05/10 12:34:32;;;;;;;5.20;4.80;;;28.60;99.90;;;;;;5094267;28;20613;-73
2022/05/10 12:37:31;;;;;;;6.10;5.60;;;28.20;99.90;;;;;;5093864;28;20726;-73
2022/05/10 12:40:14;;;;;;;8.43;5.13;;;28.10;99.90;;;;;;5094620;28;20613;-73
2022/05/10 12:43:08;;;;;;;5.57;5.07;;;27.80;99.90;;;;;;5095229;28;20574;-73
2022/05/10 12:45:44;;;;;;;5.17;4.80;;;28.50;99.90;;;;;;5095107;28;20578;-73
2022/05/10 12:48:43;;;;;;;5.50;5.20;;;28.50;99.90;;;;;;5095654;28;20549;-73
2022/05/10 12:51:22;;;;;;;6.53;6.10;;;28.30;99.90;;;;;;5076599;28;20625;-74
2022/05/10 12:54:04;;;;;;;5.87;5.47;;;28.70;99.90;;;;;;5094869;28;20578;-74
2022/05/10 12:56:36;;;;;;;5.63;5.03;;;28.80;99.90;;;;;;5095264;28;20569;-74
2022/05/10 12:59:07;;;;;;;5.97;5.57;;;28.50;99.90;;;;;;5095640;28;20611;-74
2022/05/10 13:01:36;;;;;;;5.63;4.80;;;29.30;99.90;;;;;;5077019;28;20644;-73
2022/05/10 13:04:09;;;;;;;5.53;5.17;;;29.10;99.90;;;;;;5095360;28;20632;-73
2022/05/10 13:06:50;;;;;;;5.03;4.83;;;28.50;99.90;;;;;;5093984;28;20657;-74
2022/05/10 13:09:34;;;;;;;5.53;5.13;;;28.00;99.90;;;;;;5094935;28;20625;-73
2022/05/10 13:12:15;;;;;;;5.00;4.70;;;28.00;99.90;;;;;;5094515;28;20636;-73
2022/05/10 13:14:48;;;;;;;6.60;6.00;;;28.20;99.90;;;;;;5094727;28;20587;-74
2022/05/10 13:17:25;;;;;;;5.93;5.40;;;28.50;99.90;;;;;;5094252;28;20611;-73
2022/05/10 13:19:52;;;;;;;7.07;5.40;;;28.10;99.90;;;;;;5076707;28;20636;-73
2022/05/10 13:22:21;;;;;;;6.27;5.67;;;28.20;99.90;;;;;;5094920;28;21018;-73
2022/05/10 13:24:55;;;;;;;6.10;5.70;;;28.80;99.90;;;;;;5094900;28;21039;-73
2022/05/10 13:27:31;;;;;;;9.87;5.47;;;29.40;99.90;;;;;;5094421;28;21047;-73
2022/05/10 13:30:18;;;;;;;5.13;4.83;;;28.60;99.90;;;;;;5075460;28;20636;-74